createdAt,value
2022-09-28T00:01:27.220Z,99972.63
2022-09-28T00:03:59.942Z,99974.97
2022-09-28T00:06:30.757Z,99980.44
2022-09-28T00:08:58.742Z,99978.66
2022-09-28T00:11:29.295Z,99973.78
2022-09-28T00:14:00.129Z,99968.59
2022-09-28T00:16:31.657Z,99969.63
2022-09-28T00:18:59.913Z,99978.97
2022-09-28T00:21:31.671Z,99971.16
2022-09-28T00:24:12.984Z,99971.16
2022-09-28T00:26:41.793Z,99968.28
2022-09-28T00:29:31.629Z,99971.16
2022-09-28T00:32:03.132Z,99970.13
2022-09-28T00:34:42.532Z,99968.56
2022-09-28T00:37:10.370Z,99976.63
2022-09-28T00:39:38.833Z,99983.66
2022-09-28T00:42:19.999Z,99987.28
2022-09-28T00:44:51.511Z,99989.38
2022-09-28T00:47:33.194Z,99982.34
2022-09-28T00:50:11.868Z,99988.59
2022-09-28T00:52:48.763Z,99987.06
2022-09-28T00:55:22.056Z,99984.19
2022-09-28T00:57:52.410Z,99978.75
2022-09-28T01:00:19.729Z,99983.69
2022-09-28T01:02:47.743Z,99979.25
2022-09-28T01:05:17.125Z,99978.97
2022-09-28T01:07:46.683Z,99982.38
2022-09-28T01:10:14.925Z,99980.56
2022-09-28T01:12:42.166Z,99971.97
2022-09-28T01:15:09.937Z,99984.72
2022-09-28T01:17:45.459Z,99983.41
2022-09-28T01:20:31.311Z,99957.44
2022-09-28T01:23:37.663Z,99975.63
2022-09-28T01:26:23.275Z,99978.75
2022-09-28T01:28:59.800Z,99980.03
2022-09-28T01:31:32.497Z,99974.56
2022-09-28T01:34:16.601Z,99975.91
2022-09-28T01:36:54.077Z,99964.72
2022-09-28T01:39:34.754Z,99968.06
2022-09-28T01:42:08.437Z,99981.84
2022-09-28T01:44:40.114Z,99991.47
2022-09-28T01:47:13.048Z,99995.13
2022-09-28T01:49:45.388Z,99997.44
2022-09-28T01:52:23.342Z,100003.97
2022-09-28T01:54:53.565Z,99992.75
2022-09-28T01:57:35.911Z,100001.34
2022-09-28T02:00:08.048Z,100016.38
2022-09-28T02:02:58.472Z,100010.94
2022-09-28T02:05:52.052Z,100007.03
2022-09-28T02:08:33.909Z,99998.97
2022-09-28T02:11:08.250Z,100007.56
2022-09-28T02:14:04.461Z,100009.13
2022-09-28T02:16:43.070Z,99996.38
2022-09-28T02:19:13.906Z,100000.56
2022-09-28T02:22:06.685Z,100013.31
2022-09-28T02:24:42.489Z,100008.09
2022-09-28T02:27:23.493Z,100014.34
2022-09-28T02:29:50.785Z,100017.69
2022-09-28T02:32:20.443Z,100018.22
2022-09-28T02:34:47.596Z,100021.34
2022-09-28T02:37:14.784Z,100023.41
2022-09-28T02:39:41.965Z,100018.50
2022-09-28T02:42:25.821Z,99991.41
2022-09-28T02:45:16.045Z,100016.38
2022-09-28T02:47:52.088Z,100018.19
2022-09-28T02:50:33.465Z,100018.44
2022-09-28T02:53:28.061Z,100023.09
2022-09-28T02:56:04.169Z,100025.94
2022-09-28T02:58:49.465Z,100015.81
2022-09-28T03:01:26.316Z,100012.69
2022-09-28T03:04:02.042Z,100012.47
2022-09-28T03:06:41.329Z,100022.44
2022-09-28T03:09:22.188Z,100013.41
2022-09-28T03:11:57.178Z,100014.16
2022-09-28T03:14:24.663Z,100017.47
2022-09-28T03:16:56.185Z,100018.28
2022-09-28T03:19:28.499Z,100012.81
2022-09-28T03:21:55.867Z,100007.63
2022-09-28T03:24:23.106Z,100014.59
2022-09-28T03:26:50.758Z,100028.28
2022-09-28T03:29:20.501Z,100031.69
2022-09-28T03:31:52.617Z,100030.47
2022-09-28T03:34:20.172Z,100038.53
2022-09-28T03:36:47.444Z,100037.00
2022-09-28T03:39:14.936Z,100027.91
2022-09-28T03:41:42.615Z,100028.16
2022-09-28T03:44:09.745Z,100023.47
2022-09-28T03:46:37.020Z,100024.25
2022-09-28T03:49:07.451Z,100017.56
2022-09-28T03:51:34.506Z,100010.53
2022-09-28T03:54:01.662Z,100018.13
2022-09-28T03:56:28.737Z,100020.97
2022-09-28T03:58:55.807Z,100008.75
2022-09-28T04:01:23.140Z,100016.78
2022-09-28T04:03:57.608Z,100017.03
2022-09-28T04:06:26.001Z,100022.19
2022-09-28T04:08:53.881Z,100033.81
2022-09-28T04:11:21.526Z,100034.78
2022-09-28T04:13:51.816Z,100042.50
2022-09-28T04:16:19.634Z,100045.53
2022-09-28T04:18:59.168Z,100033.03
2022-09-28T04:21:45.050Z,100038.22
2022-09-28T04:24:14.636Z,100049.63
2022-09-28T04:26:41.869Z,100053.69
2022-09-28T04:29:17.520Z,100059.91
2022-09-28T04:31:51.051Z,100057.06
2022-09-28T04:34:21.966Z,100079.19
2022-09-28T04:36:50.072Z,100076.69
2022-09-28T04:39:19.490Z,100079.81
2022-09-28T04:41:52.538Z,100067.44
2022-09-28T04:44:19.841Z,100084.09
2022-09-28T04:46:48.329Z,100068.06
2022-09-28T04:49:30.455Z,100068.63
2022-09-28T04:52:10.973Z,100076.75
2022-09-28T04:54:39.784Z,100063.50
2022-09-28T04:57:06.883Z,100081.50
2022-09-28T04:59:34.614Z,100084.34
2022-09-28T05:02:01.796Z,100067.41
2022-09-28T05:04:47.919Z,100069.69
2022-09-28T05:07:36.969Z,100069.16
2022-09-28T05:10:06.623Z,100077.41
2022-09-28T05:12:34.432Z,100075.91
2022-09-28T05:15:01.719Z,100070.00
2022-09-28T05:17:29.001Z,100075.97
2022-09-28T05:20:06.767Z,100068.69
2022-09-28T05:22:34.491Z,100072.31
2022-09-28T05:25:03.063Z,100084.16
2022-09-28T05:27:36.513Z,100081.50
2022-09-28T05:30:08.873Z,100075.00
2022-09-28T05:33:02.399Z,100066.94
2022-09-28T05:35:42.512Z,100084.66
2022-09-28T05:38:09.661Z,100094.28
2022-09-28T05:40:36.976Z,100074.41
2022-09-28T05:43:04.125Z,100085.88
2022-09-28T05:45:32.570Z,100080.34
2022-09-28T05:47:59.951Z,100076.50
2022-09-28T05:50:28.086Z,100067.94
2022-09-28T05:53:07.021Z,100052.81
2022-09-28T05:55:35.325Z,100077.88
2022-09-28T05:58:05.379Z,100067.41
2022-09-28T06:00:35.750Z,100071.38
2022-09-28T06:03:08.937Z,100061.16
2022-09-28T06:05:39.534Z,100058.53
2022-09-28T06:08:10.467Z,100046.44
2022-09-28T06:10:39.969Z,100026.06
2022-09-28T06:13:07.663Z,100025.59
2022-09-28T06:15:36.490Z,100018.91
2022-09-28T06:18:06.984Z,100021.31
2022-09-28T06:20:41.230Z,100034.22
2022-09-28T06:23:16.321Z,100038.13
2022-09-28T06:25:43.952Z,100036.28
2022-09-28T06:28:13.920Z,100046.41
2022-09-28T06:30:42.258Z,100039.75
2022-09-28T06:33:14.559Z,100053.84
2022-09-28T06:35:42.484Z,100057.25
2022-09-28T06:38:10.791Z,100072.63
2022-09-28T06:40:38.531Z,100085.13
2022-09-28T06:43:17.461Z,100110.47
2022-09-28T06:46:03.604Z,100111.28
2022-09-28T06:48:33.569Z,100110.72
2022-09-28T06:51:01.605Z,100117.97
2022-09-28T06:53:49.024Z,100115.88
2022-09-28T06:56:33.279Z,100112.47
2022-09-28T06:59:00.793Z,100104.03
2022-09-28T07:01:28.799Z,100100.19
2022-09-28T07:04:06.910Z,100090.69
2022-09-28T07:06:54.353Z,100103.00
2022-09-28T07:09:51.239Z,100095.81
2022-09-28T07:12:30.437Z,100100.91
2022-09-28T07:15:02.696Z,100087.88
2022-09-28T07:17:30.127Z,100102.25
2022-09-28T07:20:09.911Z,100091.06
2022-09-28T07:22:43.902Z,100101.13
2022-09-28T07:25:17.474Z,100099.69
2022-09-28T07:28:00.324Z,100104.13
2022-09-28T07:30:47.960Z,100111.28
2022-09-28T07:33:32.711Z,100101.63
2022-09-28T07:36:18.584Z,100123.25
2022-09-28T07:38:45.781Z,100112.34
2022-09-28T07:41:14.227Z,100108.66
2022-09-28T07:43:48.692Z,100113.16
2022-09-28T07:46:17.000Z,100103.94
2022-09-28T07:49:01.108Z,100111.75
2022-09-28T07:51:34.635Z,100103.00
2022-09-28T07:54:20.689Z,100110.69
2022-09-28T07:57:11.060Z,100113.81
2022-09-28T07:59:53.697Z,100105.59
2022-09-28T08:02:27.078Z,100118.44
2022-09-28T08:04:54.236Z,100116.03
2022-09-28T08:07:24.204Z,100118.41
2022-09-28T08:09:59.311Z,100103.69
2022-09-28T08:12:26.645Z,100113.00
2022-09-28T08:15:23.420Z,100114.56
2022-09-28T08:18:02.015Z,100108.53
2022-09-28T08:20:51.575Z,100099.88
2022-09-28T08:23:20.489Z,100097.91
2022-09-28T08:25:52.620Z,100108.25
2022-09-28T08:28:20.773Z,100106.38
2022-09-28T08:30:49.518Z,100105.22
2022-09-28T08:33:39.629Z,100115.63
2022-09-28T08:36:44.905Z,100113.31
2022-09-28T08:39:30.907Z,100118.03
2022-09-28T08:42:35.828Z,100123.38
2022-09-28T08:45:25.105Z,100118.50
2022-09-28T08:48:33.023Z,100118.28
2022-09-28T08:51:20.507Z,100112.09
2022-09-28T08:54:24.809Z,100118.97
2022-09-28T08:57:12.712Z,100102.56
2022-09-28T08:59:46.214Z,100101.00
2022-09-28T09:02:33.784Z,100103.66
2022-09-28T09:06:04.118Z,100103.00
2022-09-28T09:09:12.355Z,100099.69
2022-09-28T09:12:00.831Z,100095.75
2022-09-28T09:14:46.393Z,100088.59
2022-09-28T09:18:07.289Z,100086.91
2022-09-28T09:20:56.961Z,100088.38
2022-09-28T09:23:54.322Z,100079.06
2022-09-28T09:26:39.636Z,100078.28
2022-09-28T09:29:40.723Z,100079.56
2022-09-28T09:32:35.872Z,100086.66
2022-09-28T09:35:09.291Z,100083.19
2022-09-28T09:38:22.141Z,100095.28
2022-09-28T09:41:28.201Z,100088.97
2022-09-28T09:44:46.005Z,100098.09
2022-09-28T09:48:29.455Z,100095.28
2022-09-28T09:51:20.080Z,100087.28
2022-09-28T09:53:55.676Z,100078.09
2022-09-28T09:56:27.384Z,100077.63
2022-09-28T09:59:24.194Z,100083.84
2022-09-28T10:02:23.718Z,100080.28
2022-09-28T10:05:06.114Z,100080.34
2022-09-28T10:08:14.595Z,100083.38
2022-09-28T10:11:22.296Z,100062.28
2022-09-28T10:13:55.372Z,100064.75
2022-09-28T10:16:53.919Z,100063.81
2022-09-28T10:19:43.767Z,100074.63
2022-09-28T10:22:41.052Z,100082.41
2022-09-28T10:25:13.465Z,100066.78
2022-09-28T10:27:47.585Z,100070.22
2022-09-28T10:30:19.163Z,100067.41
2022-09-28T10:32:49.614Z,100063.03
2022-09-28T10:35:24.206Z,100065.72
2022-09-28T10:38:00.691Z,100073.84
2022-09-28T10:40:51.621Z,100072.63
2022-09-28T10:43:34.920Z,100067.75
2022-09-28T10:46:15.268Z,100071.88
2022-09-28T10:49:18.754Z,100073.53
2022-09-28T10:51:56.289Z,100067.25
2022-09-28T10:54:38.901Z,100065.91
2022-09-28T10:57:27.845Z,100068.59
2022-09-28T10:59:59.332Z,100071.47
2022-09-28T11:02:36.600Z,100069.06
2022-09-28T11:05:30.209Z,100071.13
2022-09-28T11:08:02.843Z,100064.44
2022-09-28T11:10:38.143Z,100054.78
2022-09-28T11:13:12.775Z,100065.75
2022-09-28T11:15:44.471Z,100059.53
2022-09-28T11:18:32.575Z,100057.47
2022-09-28T11:21:12.550Z,100062.16
2022-09-28T11:24:01.533Z,100062.38
2022-09-28T11:26:41.063Z,100066.78
2022-09-28T11:29:44.351Z,100056.00
2022-09-28T11:32:44.683Z,100044.06
2022-09-28T11:35:22.423Z,100039.28
2022-09-28T11:37:57.369Z,100042.47
2022-09-28T11:40:43.305Z,100043.47
2022-09-28T11:43:36.920Z,100044.28
2022-09-28T11:46:15.106Z,100041.44
2022-09-28T11:48:49.476Z,100038.56
2022-09-28T11:51:22.140Z,100046.28
2022-09-28T11:53:54.344Z,100040.34
2022-09-28T11:56:42.180Z,100033.94
2022-09-28T11:59:25.285Z,100025.66
2022-09-28T12:01:57.788Z,100023.09
2022-09-28T12:05:21.348Z,100009.78
2022-09-28T12:08:04.684Z,100003.22
2022-09-28T12:11:24.212Z,100013.09
2022-09-28T12:14:28.693Z,100007.13
2022-09-28T12:17:08.273Z,100010.63
2022-09-28T12:19:55.609Z,99999.63
2022-09-28T12:22:33.872Z,99997.50
2022-09-28T12:25:04.149Z,100005.06
2022-09-28T12:27:46.744Z,100008.78
2022-09-28T12:30:20.106Z,100012.84
2022-09-28T12:32:50.452Z,100006.06
2022-09-28T12:35:40.514Z,99995.06
2022-09-28T12:38:22.673Z,100004.94
2022-09-28T12:41:08.979Z,99998.16
2022-09-28T12:43:41.000Z,99998.34
2022-09-28T12:46:12.086Z,99989.25
2022-09-28T12:49:03.035Z,99991.00
2022-09-28T12:51:43.990Z,99997.38
2022-09-28T12:54:19.427Z,99995.84
2022-09-28T12:57:04.956Z,99996.25
2022-09-28T12:59:34.966Z,99996.03
2022-09-28T13:02:30.156Z,100007.25
2022-09-28T13:05:12.458Z,99994.88
2022-09-28T13:07:58.263Z,100000.28
2022-09-28T13:10:34.234Z,100003.56
2022-09-28T13:13:31.753Z,100007.41
2022-09-28T13:16:28.360Z,100018.28
2022-09-28T13:19:17.299Z,100001.81
2022-09-28T13:22:13.108Z,100016.69
2022-09-28T13:24:44.756Z,100014.78
2022-09-28T13:27:21.278Z,99999.69
2022-09-28T13:29:50.463Z,100004.13
2022-09-28T13:32:19.430Z,100005.81
2022-09-28T13:34:50.553Z,100015.50
2022-09-28T13:37:25.338Z,100012.00
2022-09-28T13:39:57.047Z,100012.41
2022-09-28T13:42:26.996Z,100012.41
2022-09-28T13:45:22.302Z,100007.94
2022-09-28T13:47:52.498Z,100011.03
2022-09-28T13:50:47.593Z,100002.50
2022-09-28T13:53:45.772Z,100000.00
2022-09-28T13:56:37.471Z,100001.00
2022-09-28T13:59:11.229Z,99992.94
2022-09-28T14:02:06.822Z,99995.63
2022-09-28T14:04:56.222Z,99995.06
2022-09-28T14:07:35.477Z,99998.75
2022-09-28T14:10:24.748Z,99992.94
2022-09-28T14:12:53.606Z,100001.25
2022-09-28T14:15:30.010Z,100000.47
2022-09-28T14:18:20.924Z,100004.75
2022-09-28T14:21:07.192Z,100002.81
2022-09-28T14:23:50.802Z,99959.72
2022-09-28T14:26:41.901Z,100008.97
2022-09-28T14:29:36.456Z,100006.28
2022-09-28T14:32:09.541Z,99998.16
2022-09-28T14:34:41.490Z,99995.81
2022-09-28T14:37:46.033Z,99988.50
2022-09-28T14:41:11.361Z,99997.38
2022-09-28T14:43:44.676Z,100000.41
2022-09-28T14:46:11.985Z,99994.69
2022-09-28T14:48:55.474Z,99990.06
2022-09-28T14:51:33.105Z,99992.00
2022-09-28T14:54:03.356Z,99987.34
2022-09-28T14:56:40.442Z,99990.00
2022-09-28T14:59:17.880Z,99992.78
2022-09-28T15:01:57.852Z,99982.97
2022-09-28T15:04:28.848Z,99992.69
2022-09-28T15:06:58.344Z,99984.22
2022-09-28T15:09:32.222Z,99987.91
2022-09-28T15:12:03.546Z,99993.16
2022-09-28T15:14:33.524Z,99985.03
2022-09-28T15:17:08.712Z,99992.19
2022-09-28T15:20:03.868Z,99999.13
2022-09-28T15:22:31.261Z,100002.41
2022-09-28T15:25:02.416Z,99997.78
2022-09-28T15:27:38.176Z,99990.81
2022-09-28T15:30:22.523Z,99988.13
2022-09-28T15:32:50.057Z,99994.13
2022-09-28T15:35:23.713Z,99998.53
2022-09-28T15:37:56.566Z,99998.16
2022-09-28T15:40:33.848Z,99998.94
2022-09-28T15:43:02.647Z,100006.28
2022-09-28T15:45:40.764Z,100003.38
2022-09-28T15:48:37.509Z,100008.94
2022-09-28T15:51:11.114Z,100011.06
2022-09-28T15:53:44.127Z,100008.00
2022-09-28T15:56:11.932Z,100010.47
2022-09-28T15:58:39.776Z,100015.09
2022-09-28T16:01:26.084Z,100004.28
2022-09-28T16:03:53.984Z,100007.13
2022-09-28T16:06:22.036Z,100007.72
2022-09-28T16:12:21.856Z,100016.53
2022-09-28T16:14:51.976Z,99999.13
2022-09-28T16:17:33.836Z,100011.88
2022-09-28T16:20:29.255Z,100011.47
2022-09-28T16:23:03.608Z,100007.19
2022-09-28T16:25:30.728Z,100011.44
2022-09-28T16:27:58.073Z,100010.63
2022-09-28T16:30:32.518Z,99984.66
2022-09-28T16:33:05.778Z,100010.16
2022-09-28T16:35:35.954Z,100012.25
2022-09-28T16:38:14.646Z,99997.84
2022-09-28T16:41:04.175Z,99995.13
2022-09-28T16:43:36.311Z,100006.88
2022-09-28T16:46:16.022Z,100009.16
2022-09-28T16:48:51.576Z,100005.28
2022-09-28T16:51:20.482Z,100012.59
2022-09-28T16:54:06.539Z,100013.09
2022-09-28T16:56:35.813Z,100013.59
2022-09-28T16:59:03.151Z,100022.59
2022-09-28T17:01:31.556Z,100021.97
2022-09-28T17:03:58.909Z,100008.38
2022-09-28T17:06:27.162Z,100015.69
2022-09-28T17:08:59.256Z,100016.28
2022-09-28T17:11:26.332Z,100009.09
2022-09-28T17:13:59.153Z,100000.47
2022-09-28T17:19:24.570Z,100009.78
2022-09-28T17:21:53.214Z,100014.03
2022-09-28T17:24:20.864Z,100015.28
2022-09-28T17:26:51.008Z,100020.06
2022-09-28T17:29:18.901Z,100014.44
2022-09-28T17:31:47.092Z,100021.00
2022-09-28T17:34:19.578Z,100016.91
2022-09-28T17:36:47.537Z,100009.28
2022-09-28T17:39:18.565Z,100016.41
2022-09-28T17:41:47.437Z,100027.72
2022-09-28T17:44:16.420Z,100006.16
2022-09-28T17:46:47.608Z,100042.88
2022-09-28T17:49:15.473Z,100033.91
2022-09-28T17:51:42.728Z,100033.13
2022-09-28T17:54:10.406Z,100047.78
2022-09-28T17:56:37.739Z,100034.50
2022-09-28T17:59:07.525Z,100039.69
2022-09-28T18:01:38.125Z,100053.13
2022-09-28T18:04:08.221Z,100048.69
2022-09-28T18:06:37.304Z,100060.44
2022-09-28T18:09:05.411Z,100062.69
2022-09-28T18:11:33.803Z,100052.91
2022-09-28T18:14:01.327Z,100064.69
2022-09-28T18:16:29.222Z,100074.09
2022-09-28T18:18:56.660Z,100070.53
2022-09-28T18:21:23.816Z,100073.84
2022-09-28T18:23:51.015Z,100084.38
2022-09-28T18:26:21.409Z,100085.25
2022-09-28T18:28:48.614Z,100067.59
2022-09-28T18:31:19.145Z,100081.03
2022-09-28T18:33:51.303Z,100088.38
2022-09-28T18:36:18.636Z,100082.53
2022-09-28T18:38:45.706Z,100095.28
2022-09-28T18:41:15.806Z,100089.53
2022-09-28T18:43:49.027Z,100071.75
2022-09-28T18:46:18.442Z,100080.41
2022-09-28T18:48:47.931Z,100094.25
2022-09-28T18:51:15.438Z,100095.84
2022-09-28T18:53:42.654Z,100095.06
2022-09-28T18:56:12.512Z,100095.63
2022-09-28T18:58:41.389Z,100094.31
2022-09-28T19:01:33.390Z,100099.41
2022-09-28T19:04:06.572Z,100102.56
2022-09-28T19:06:34.473Z,100100.25
2022-09-28T19:09:01.853Z,100072.03
2022-09-28T19:11:29.116Z,100098.25
2022-09-28T19:13:56.717Z,100108.25
2022-09-28T19:16:28.746Z,100108.78
2022-09-28T19:18:58.291Z,100111.66
2022-09-28T19:21:26.827Z,100112.56
2022-09-28T19:23:55.682Z,100114.47
2022-09-28T19:26:25.652Z,100091.28
2022-09-28T19:28:53.824Z,100091.13
2022-09-28T19:31:21.958Z,100111.56
2022-09-28T19:33:49.924Z,100110.53
2022-09-28T19:36:19.667Z,100105.81
2022-09-28T19:38:47.576Z,100105.53
2022-09-28T19:41:39.372Z,100101.78
2022-09-28T19:44:25.214Z,100110.78
2022-09-28T19:46:55.381Z,100108.00
2022-09-28T19:49:24.976Z,100100.56
2022-09-28T19:52:11.968Z,100104.00
2022-09-28T19:54:39.832Z,100094.75
2022-09-28T19:57:08.753Z,100101.44
2022-09-28T19:59:37.515Z,100100.84
2022-09-28T20:02:07.097Z,100103.09
2022-09-28T20:04:34.907Z,100115.06
2022-09-28T20:07:02.612Z,100100.78
2022-09-28T20:09:29.930Z,100091.19
2022-09-28T20:11:57.488Z,100109.09
2022-09-28T20:14:26.270Z,100112.19
2022-09-28T20:16:55.449Z,100105.75
2022-09-28T20:19:23.358Z,100116.84
2022-09-28T20:21:50.946Z,100128.50
2022-09-28T20:24:18.632Z,100124.03
2022-09-28T20:26:46.029Z,100110.97
2022-09-28T20:29:13.370Z,100082.41
2022-09-28T20:31:40.778Z,100114.56
2022-09-28T20:34:08.210Z,100123.19
2022-09-28T20:36:35.415Z,100119.97
2022-09-28T20:39:02.973Z,100118.59
2022-09-28T20:41:35.714Z,100120.34
2022-09-28T20:44:05.918Z,100118.59
2022-09-28T20:46:37.291Z,100122.13
2022-09-28T20:49:05.417Z,100126.88
2022-09-28T20:51:32.833Z,100130.44
2022-09-28T20:54:00.111Z,100136.19
2022-09-28T20:56:37.792Z,100129.16
2022-09-28T20:59:08.075Z,100126.50
2022-09-28T21:01:35.536Z,100127.88
2022-09-28T21:04:04.754Z,100140.19
2022-09-28T21:06:35.154Z,100138.31
2022-09-28T21:09:03.312Z,100141.72
2022-09-28T21:11:30.946Z,100139.16
2022-09-28T21:13:59.896Z,100148.19
2022-09-28T21:16:28.895Z,100151.47
2022-09-28T21:18:56.400Z,100130.09
2022-09-28T21:21:24.864Z,100138.34
2022-09-28T21:23:53.410Z,100154.59
2022-09-28T21:26:25.923Z,100163.25
2022-09-28T21:28:54.142Z,100147.13
2022-09-28T21:31:27.540Z,100145.22
2022-09-28T21:33:56.372Z,100157.44
2022-09-28T21:36:24.598Z,100165.44
2022-09-28T21:38:51.832Z,100167.22
2022-09-28T21:41:18.921Z,100173.75
2022-09-28T21:43:46.081Z,100157.19
2022-09-28T21:46:13.681Z,100177.47
2022-09-28T21:48:41.460Z,100162.31
2022-09-28T21:51:13.050Z,100156.28
2022-09-28T21:53:40.295Z,100149.81
2022-09-28T21:56:10.619Z,100162.25
2022-09-28T21:58:38.044Z,100153.50
2022-09-28T22:01:18.050Z,100163.06
2022-09-28T22:03:48.164Z,100163.34
2022-09-28T22:06:17.274Z,100149.91
2022-09-28T22:08:46.100Z,100162.38
2022-09-28T22:11:16.406Z,100165.28
2022-09-28T22:13:49.434Z,100156.75
2022-09-28T22:16:18.659Z,100150.59
2022-09-28T22:18:46.434Z,100155.72
2022-09-28T22:21:14.962Z,100148.94
2022-09-28T22:23:42.743Z,100146.56
2022-09-28T22:26:18.071Z,100153.59
2022-09-28T22:28:57.516Z,100136.47
2022-09-28T22:31:28.940Z,100128.34
2022-09-28T22:33:56.829Z,100138.75
2022-09-28T22:36:24.428Z,100127.63
2022-09-28T22:38:52.288Z,100138.81
2022-09-28T22:41:22.928Z,100139.59
2022-09-28T22:43:52.603Z,100120.59
2022-09-28T22:46:25.670Z,100134.56
2022-09-28T22:48:55.323Z,100131.72
2022-09-28T22:51:24.670Z,100137.44
2022-09-28T22:53:52.121Z,100133.25
2022-09-28T22:56:19.505Z,100115.09
2022-09-28T22:58:47.306Z,100128.59
2022-09-28T23:01:21.334Z,100132.13
2022-09-28T23:03:50.011Z,100126.66
2022-09-28T23:06:19.141Z,100133.91
2022-09-28T23:08:47.582Z,100140.47
2022-09-28T23:11:15.742Z,100127.94
2022-09-28T23:13:43.889Z,100112.06
2022-09-28T23:16:12.738Z,100124.75
2022-09-28T23:18:43.735Z,100122.44
2022-09-28T23:21:13.533Z,100122.44
2022-09-28T23:23:41.162Z,100111.25
2022-09-28T23:26:20.479Z,100120.06
2022-09-28T23:28:47.593Z,100104.91
2022-09-28T23:31:18.080Z,100111.69
2022-09-28T23:33:45.377Z,100099.81
2022-09-28T23:36:12.708Z,100114.13
2022-09-28T23:38:40.181Z,100099.56
2022-09-28T23:41:07.971Z,100123.25
2022-09-28T23:43:36.416Z,100129.78
2022-09-28T23:46:05.223Z,100124.28
2022-09-28T23:48:33.265Z,100120.19
2022-09-28T23:51:00.767Z,100126.91
2022-09-28T23:53:28.619Z,100128.56
2022-09-28T23:55:56.071Z,100123.03
2022-09-28T23:58:23.252Z,100118.84
